Time;durP1;ratioP1;P1;durP2;ratioP2;P2;SDS_P1;SDS_P2;PMS_P1;PMS_P2;Temp;Humidity;BMP_temperature;BMP_pressure;BME280_temperature;BME280_humidity;BME280_pressure;Samples;Min_cycle;Max_cycle;Signal;HPM_P1;HPM_P2
2023/10/28 00:00:46;;;;;;;;;;;;;;;15.60;93.79;94294.63;5134251;28;2236;-64
2023/10/28 00:03:12;;;;;;;;;;;;;;;15.41;94.55;94278.31;5134318;28;1033;-64
2023/10/28 00:05:38;;;;;;;;;;;;;;;15.41;94.39;94286.38;5134321;28;1031;-64
2023/10/28 00:08:04;;;;;;;;;;;;;;;15.46;94.67;94296.53;5134082;28;1080;-64
2023/10/28 00:10:31;;;;;;;;;;;;;;;15.42;95.03;94289.88;5134094;28;1045;-64
2023/10/28 00:12:57;;;;;;;;;;;;;;;15.48;94.55;94299.00;5134217;28;1222;-64
2023/10/28 00:15:24;;;;;;;;;;;;;;;15.55;94.29;94289.03;5134284;28;1067;-64
2023/10/28 00:17:50;;;;;;;;;;;;;;;15.70;92.37;94288.75;5134151;28;1067;-63
2023/10/28 00:20:17;;;;;;;;;;;;;;;15.80;93.21;94284.63;5134006;28;1901;-64
2023/10/28 00:22:47;;;;;;;;;;;;;;;15.71;93.09;94298.53;5134141;28;826;-63
2023/10/28 00:25:13;;;;;;;;;;;;;;;15.43;93.73;94295.06;5134187;28;978;-63
2023/10/28 00:27:40;;;;;;;;;;;;;;;15.33;94.35;94292.00;5134229;28;1023;-63
2023/10/28 00:30:10;;;;;;;;;;;;;;;15.41;94.09;94282.88;5134123;28;1114;-64
2023/10/28 00:32:36;;;;;;;;;;;;;;;15.43;94.52;94289.69;5136512;27;1499;-63
2023/10/28 00:35:03;;;;;;;;;;;;;;;15.25;95.75;94276.06;5154755;27;1023;-64
2023/10/28 00:37:29;;;;;;;;;;;;;;;15.30;95.07;94287.03;5154620;27;1095;-63
2023/10/28 00:39:56;;;;;;;;;;;;;;;15.37;95.99;94279.78;5154682;27;1048;-63
2023/10/28 00:42:22;;;;;;;;;;;;;;;15.23;95.59;94280.81;5154653;27;2013;-64
2023/10/28 00:44:47;;;;;;;;;;;;;;;15.31;96.45;94282.47;5154744;27;1043;-64
2023/10/28 00:47:14;;;;;;;;;;;;;;;15.31;96.25;94277.06;5154543;27;1106;-63
2023/10/28 00:49:42;;;;;;;;;;;;;;;15.32;96.21;94284.13;5154565;27;1069;-63
2023/10/28 00:52:08;;;;;;;;;;;;;;;15.31;96.42;94282.47;5154721;27;917;-63
2023/10/28 00:54:35;;;;;;;;;;;;;;;15.13;96.11;94299.28;5158324;27;1360;-63
2023/10/28 00:57:01;;;;;;;;;;;;;;;15.08;96.33;94305.31;5158313;27;1039;-63
2023/10/28 00:59:28;;;;;;;;;;;;;;;15.04;96.86;94298.69;5158261;27;1067;-63
2023/10/28 01:01:54;;;;;;;;;;;;;;;15.09;97.12;94298.06;5158202;27;1913;-63
2023/10/28 01:04:20;;;;;;;;;;;;;;;15.03;96.95;94297.84;5158156;27;1039;-63
2023/10/28 01:06:47;;;;;;;;;;;;;;;14.86;96.90;94301.19;5158101;27;1094;-63
2023/10/28 01:09:13;;;;;;;;;;;;;;;14.96;96.42;94315.88;5157887;27;1222;-63
2023/10/28 01:11:41;;;;;;;;;;;;;;;15.10;96.56;94315.84;5158109;27;1024;-62
2023/10/28 01:14:07;;;;;;;;;;;;;;;14.87;95.79;94308.22;5158129;27;968;-64
2023/10/28 01:16:34;;;;;;;;;;;;;;;14.73;97.27;94316.31;5158024;27;1292;-63
2023/10/28 01:19:00;;;;;;;;;;;;;;;14.94;96.39;94325.19;5157874;27;1207;-62
2023/10/28 01:21:26;;;;;;;;;;;;;;;14.94;96.71;94309.88;5157600;27;1921;-62
2023/10/28 01:23:52;;;;;;;;;;;;;;;14.89;96.42;94320.47;5157829;27;1048;-62
2023/10/28 01:26:19;;;;;;;;;;;;;;;15.03;96.61;94324.78;5157671;27;1115;-63
2023/10/28 01:28:44;;;;;;;;;;;;;;;15.14;96.43;94335.94;5157845;27;955;-62
2023/10/28 01:31:11;;;;;;;;;;;;;;;14.98;97.12;94329.94;5157528;27;1091;-63
2023/10/28 01:33:37;;;;;;;;;;;;;;;14.84;97.25;94331.81;5146251;27;1128;-63
2023/10/28 01:36:03;;;;;;;;;;;;;;;14.92;96.70;94335.34;5136899;27;973;-62
2023/10/28 01:38:29;;;;;;;;;;;;;;;14.86;97.30;94341.56;5136973;27;956;-63
2023/10/28 01:40:56;;;;;;;;;;;;;;;14.81;98.33;94331.41;5136849;27;1913;-63
2023/10/28 01:43:22;;;;;;;;;;;;;;;14.58;98.78;94321.06;5136795;27;1108;-63
2023/10/28 01:45:48;;;;;;;;;;;;;;;14.71;98.01;94322.94;5136702;27;1069;-62
2023/10/28 01:48:14;;;;;;;;;;;;;;;14.68;99.50;94316.09;5136543;27;1106;-62
2023/10/28 01:50:41;;;;;;;;;;;;;;;14.58;100.00;94319.19;5136625;27;1522;-63
2023/10/28 01:53:07;;;;;;;;;;;;;;;14.73;99.86;94332.44;5118287;27;1043;-63
2023/10/28 01:55:33;;;;;;;;;;;;;;;14.84;99.76;94336.41;5136373;27;1087;-63
2023/10/28 01:57:59;;;;;;;;;;;;;;;14.88;100.00;94313.41;5136493;27;1039;-63
2023/10/28 02:00:30;;;;;;;;;;;;;;;14.73;99.41;94315.47;5136379;27;1918;-63
2023/10/28 02:02:57;;;;;;;;;;;;;;;14.91;99.49;94345.28;5136366;27;1032;-63
2023/10/28 02:05:23;;;;;;;;;;;;;;;15.03;99.14;94334.72;5135125;27;1040;-63
2023/10/28 02:07:49;;;;;;;;;;;;;;;14.93;99.77;94313.63;5136276;27;1225;-63
2023/10/28 02:10:15;;;;;;;;;;;;;;;14.94;99.08;94334.09;5136306;27;965;-63
2023/10/28 02:12:41;;;;;;;;;;;;;;;15.05;99.07;94339.91;5136268;27;985;-62
2023/10/28 02:15:11;;;;;;;;;;;;;;;14.86;99.00;94330.81;5136203;27;1048;-63
2023/10/28 02:17:38;;;;;;;;;;;;;;;14.70;99.41;94335.56;5136079;27;976;-63
2023/10/28 02:20:04;;;;;;;;;;;;;;;14.75;99.61;94337.63;5135916;27;1027;-63
2023/10/28 02:22:34;;;;;;;;;;;;;;;14.69;100.00;94338.47;5136041;27;1981;-63
2023/10/28 02:25:00;;;;;;;;;;;;;;;14.84;99.37;94347.16;5136069;27;1181;-64
2023/10/28 02:27:26;;;;;;;;;;;;;;;14.70;98.87;94343.63;5135810;27;1036;-64
2023/10/28 02:29:53;;;;;;;;;;;;;;;14.43;100.00;94348.13;5135842;27;957;-63
2023/10/28 02:32:18;;;;;;;;;;;;;;;14.33;100.00;94342.31;5135835;27;1149;-63
2023/10/28 02:34:44;;;;;;;;;;;;;;;14.43;100.00;94348.13;5156421;27;972;-63
2023/10/28 02:37:10;;;;;;;;;;;;;;;14.44;100.00;94352.47;5156492;27;1073;-64
2023/10/28 02:39:37;;;;;;;;;;;;;;;14.09;100.00;94341.00;5156277;27;1209;-64
2023/10/28 02:42:04;;;;;;;;;;;;;;;14.20;100.00;94349.31;5156266;27;1996;-63
2023/10/28 02:44:30;;;;;;;;;;;;;;;14.13;100.00;94345.75;5156175;27;938;-63
2023/10/28 02:46:56;;;;;;;;;;;;;;;14.08;100.00;94352.81;5156180;27;1018;-64
2023/10/28 02:49:22;;;;;;;;;;;;;;;14.04;100.00;94338.94;5155953;27;1027;-63
2023/10/28 02:51:49;;;;;;;;;;;;;;;14.15;100.00;94351.78;5156052;27;1044;-63
2023/10/28 02:54:14;;;;;;;;;;;;;;;14.39;100.00;94345.00;5155913;27;1040;-63
2023/10/28 02:56:40;;;;;;;;;;;;;;;14.49;99.37;94355.34;5156077;27;984;-63
2023/10/28 02:59:07;;;;;;;;;;;;;;;14.47;99.25;94346.66;5156022;27;1051;-63
2023/10/28 03:01:38;;;;;;;;;;;;;;;14.57;99.42;94346.28;5155768;27;1901;-63
2023/10/28 03:04:04;;;;;;;;;;;;;;;14.52;99.16;94346.88;5155881;27;1053;-62
2023/10/28 03:06:30;;;;;;;;;;;;;;;14.44;99.35;94355.16;5155858;27;941;-59
2023/10/28 03:08:56;;;;;;;;;;;;;;;14.47;99.37;94353.91;5155455;27;1083;-62
2023/10/28 03:11:22;;;;;;;;;;;;;;;14.43;99.63;94362.38;5155557;27;1107;-62
2023/10/28 03:13:48;;;;;;;;;;;;;;;14.38;100.00;94367.56;5155620;27;1508;-60
2023/10/28 03:16:14;;;;;;;;;;;;;;;14.27;99.20;94356.56;5155297;27;996;-65
2023/10/28 03:18:40;;;;;;;;;;;;;;;14.14;99.72;94362.75;5155657;27;1282;-65
2023/10/28 03:21:06;;;;;;;;;;;;;;;14.09;100.00;94354.44;5155656;27;1909;-65
2023/10/28 03:23:32;;;;;;;;;;;;;;;14.10;100.00;94361.50;5155648;27;1048;-64
2023/10/28 03:25:59;;;;;;;;;;;;;;;13.97;99.99;94359.59;5137296;27;1007;-60
2023/10/28 03:28:25;;;;;;;;;;;;;;;13.94;99.31;94360.78;5155471;27;994;-67
2023/10/28 03:30:51;;;;;;;;;;;;;;;13.75;100.00;94364.22;5155399;27;1047;-61
2023/10/28 03:33:17;;;;;;;;;;;;;;;13.70;100.00;94364.00;5146606;27;1168;-67
2023/10/28 03:35:43;;;;;;;;;;;;;;;13.64;100.00;94362.97;5134843;27;977;-69
2023/10/28 03:38:09;;;;;;;;;;;;;;;13.64;100.00;94371.03;5134789;27;1060;-70
2023/10/28 03:40:36;;;;;;;;;;;;;;;13.61;100.00;94374.09;5134622;27;1994;-67
2023/10/28 03:43:02;;;;;;;;;;;;;;;13.61;100.00;94374.09;5134587;27;991;-67
2023/10/28 03:45:28;;;;;;;;;;;;;;;13.73;100.00;94372.50;5134487;27;1004;-66
2023/10/28 03:47:55;;;;;;;;;;;;;;;13.55;99.59;94380.28;5134422;27;1032;-66
2023/10/28 03:50:21;;;;;;;;;;;;;;;13.50;100.00;94388.09;5134276;27;1040;-67
2023/10/28 03:52:47;;;;;;;;;;;;;;;13.67;100.00;94395.59;5134325;27;1046;-66
2023/10/28 03:55:13;;;;;;;;;;;;;;;13.59;100.00;94384.22;5134229;28;1048;-66
2023/10/28 03:57:39;;;;;;;;;;;;;;;13.61;100.00;94380.28;5134196;28;1091;-66
2023/10/28 04:00:09;;;;;;;;;;;;;;;13.37;99.17;94378.09;5116024;28;985;-65
2023/10/28 04:02:35;;;;;;;;;;;;;;;13.27;100.00;94379.22;5134119;28;1902;-67
2023/10/28 04:05:01;;;;;;;;;;;;;;;13.49;100.00;94395.31;5134144;28;1036;-67
2023/10/28 04:07:27;;;;;;;;;;;;;;;13.42;100.00;94391.75;5134021;28;1295;-68
2023/10/28 04:09:52;;;;;;;;;;;;;;;13.40;100.00;94402.69;5134324;28;1041;-62
2023/10/28 04:12:18;;;;;;;;;;;;;;;13.26;100.00;94409.78;5133947;28;1041;-63
2023/10/28 04:14:45;;;;;;;;;;;;;;;13.38;100.00;94412.78;5134075;28;1179;-65
2023/10/28 04:17:11;;;;;;;;;;;;;;;13.47;100.00;94418.84;5115721;28;1079;-65
2023/10/28 04:19:37;;;;;;;;;;;;;;;13.36;100.00;94412.16;5133979;28;1048;-66
2023/10/28 04:22:03;;;;;;;;;;;;;;;13.25;100.00;94412.66;5115960;28;1910;-65
2023/10/28 04:24:29;;;;;;;;;;;;;;;13.13;100.00;94411.53;5133997;28;1048;-65
2023/10/28 04:26:55;;;;;;;;;;;;;;;13.11;100.00;94416.28;5134121;27;944;-66
2023/10/28 04:29:21;;;;;;;;;;;;;;;13.01;100.00;94414.78;5137878;27;1123;-63
2023/10/28 04:31:47;;;;;;;;;;;;;;;13.11;100.00;94414.44;5137877;27;1127;-65
2023/10/28 04:34:13;;;;;;;;;;;;;;;13.19;100.00;94424.19;5154342;27;1493;-63
2023/10/28 04:36:39;;;;;;;;;;;;;;;13.12;99.42;94423.31;5158672;27;1111;-65
2023/10/28 04:39:05;;;;;;;;;;;;;;;12.99;100.00;94422.16;5158812;27;1008;-64
2023/10/28 04:41:32;;;;;;;;;;;;;;;13.00;100.00;94426.53;5158430;27;1901;-69
2023/10/28 04:43:58;;;;;;;;;;;;;;;12.90;100.00;94428.72;5158562;27;1028;-67
2023/10/28 04:46:24;;;;;;;;;;;;;;;12.87;100.00;94421.03;5158401;27;1003;-64
2023/10/28 04:48:50;;;;;;;;;;;;;;;12.96;100.00;94427.94;5158685;27;964;-64
2023/10/28 04:51:16;;;;;;;;;;;;;;;13.04;100.00;94425.09;5158568;27;1138;-64
2023/10/28 04:53:42;;;;;;;;;;;;;;;12.95;100.00;94423.56;5158386;27;988;-65
2023/10/28 04:56:08;;;;;;;;;;;;;;;12.73;100.00;94433.50;5158399;27;1044;-62
2023/10/28 04:58:34;;;;;;;;;;;;;;;12.74;100.00;94432.47;5158278;27;953;-64
2023/10/28 05:01:00;;;;;;;;;;;;;;;12.86;100.00;94433.63;5158139;27;1988;-64
2023/10/28 05:03:26;;;;;;;;;;;;;;;12.90;100.00;94431.41;5158369;27;1031;-65
2023/10/28 05:05:52;;;;;;;;;;;;;;;13.02;100.00;94432.53;5158225;27;988;-64
2023/10/28 05:08:20;;;;;;;;;;;;;;;13.04;100.00;94443.88;5139631;27;1610;-62
2023/10/28 05:10:46;;;;;;;;;;;;;;;12.88;100.00;94431.59;5158070;27;1040;-64
2023/10/28 05:13:12;;;;;;;;;;;;;;;12.80;100.00;94444.28;5158042;27;991;-63
2023/10/28 05:15:38;;;;;;;;;;;;;;;12.74;100.00;94432.47;5157959;27;1019;-64
2023/10/28 05:18:05;;;;;;;;;;;;;;;12.79;100.00;94439.97;5158249;27;986;-63
2023/10/28 05:20:33;;;;;;;;;;;;;;;12.90;100.00;94442.13;5157892;27;1913;-64
2023/10/28 05:22:59;;;;;;;;;;;;;;;12.94;100.00;94443.41;5158023;27;1011;-64
2023/10/28 05:25:25;;;;;;;;;;;;;;;13.02;100.00;94445.94;5157858;27;1028;-65
2023/10/28 05:27:51;;;;;;;;;;;;;;;13.12;100.00;94455.50;5157821;27;1039;-66
2023/10/28 05:30:17;;;;;;;;;;;;;;;13.24;100.00;94467.38;5157574;27;1087;-65
2023/10/28 05:32:43;;;;;;;;;;;;;;;13.28;100.00;94463.28;5153878;27;1172;-65
2023/10/28 05:35:11;;;;;;;;;;;;;;;13.35;99.15;94469.56;5137088;27;1027;-65
2023/10/28 05:37:37;;;;;;;;;;;;;;;13.29;99.18;94475.69;5136815;27;1044;-65
2023/10/28 05:40:04;;;;;;;;;;;;;;;13.31;99.33;94480.88;5139119;27;1051;-66
2023/10/28 05:42:30;;;;;;;;;;;;;;;13.27;98.85;94486.59;5157307;27;1909;-66
2023/10/28 05:44:56;;;;;;;;;;;;;;;13.32;99.46;94483.38;5157386;27;1199;-66
2023/10/28 05:47:22;;;;;;;;;;;;;;;13.53;98.49;94490.56;5157566;27;1020;-65
2023/10/28 05:49:49;;;;;;;;;;;;;;;13.67;97.94;94502.22;5157547;27;1015;-66
2023/10/28 05:52:18;;;;;;;;;;;;;;;13.75;95.79;94494.00;5157377;27;996;-65
2023/10/28 05:54:44;;;;;;;;;;;;;;;14.54;92.55;94503.53;5157256;27;963;-65
2023/10/28 05:57:10;;;;;;;;;;;;;;;15.36;87.72;94507.03;5157109;27;1019;-65
2023/10/28 05:59:36;;;;;;;;;;;;;;;15.85;86.04;94513.06;5157117;27;1042;-65
2023/10/28 06:02:03;;;;;;;;;;;;;;;16.65;81.90;94510.13;5157234;27;1909;-68
2023/10/28 06:04:31;;;;;;;;;;;;;;;17.10;78.96;94520.97;5157133;27;1011;-66
2023/10/28 06:06:57;;;;;;;;;;;;;;;18.12;76.21;94533.53;5156973;27;1087;-66
2023/10/28 06:09:23;;;;;;;;;;;;;;;18.29;74.50;94533.78;5156688;27;1094;-66
2023/10/28 06:11:52;;;;;;;;;;;;;;;17.52;76.05;94518.59;5138542;27;1016;-65
2023/10/28 06:14:18;;;;;;;;;;;;;;;17.51;78.05;94535.00;5156986;27;981;-66
2023/10/28 06:16:46;;;;;;;;;;;;;;;17.60;78.32;94531.00;5156699;27;1086;-67
2023/10/28 06:19:12;;;;;;;;;;;;;;;17.39;79.51;94540.31;5156886;27;1048;-64
2023/10/28 06:21:38;;;;;;;;;;;;;;;16.89;81.07;94548.28;5156728;27;1909;-65
2023/10/28 06:24:04;;;;;;;;;;;;;;;16.33;85.03;94545.16;5156633;27;1111;-66
2023/10/28 06:26:30;;;;;;;;;;;;;;;16.64;84.84;94545.44;5156499;27;1024;-65
2023/10/28 06:28:57;;;;;;;;;;;;;;;17.53;80.70;94549.16;5156793;27;972;-65
2023/10/28 06:31:23;;;;;;;;;;;;;;;17.69;80.42;94553.19;5156626;27;1032;-65
2023/10/28 06:33:49;;;;;;;;;;;;;;;17.71;78.41;94548.41;5125030;27;1216;-66
2023/10/28 06:36:15;;;;;;;;;;;;;;;18.72;74.29;94555.38;5135662;27;961;-65
2023/10/28 06:38:41;;;;;;;;;;;;;;;19.03;73.69;94558.97;5135694;27;1048;-66
2023/10/28 06:41:09;;;;;;;;;;;;;;;19.82;70.44;94558.91;5135512;27;1992;-65
2023/10/28 06:43:35;;;;;;;;;;;;;;;20.35;67.79;94564.50;5135645;27;1215;-64
2023/10/28 06:46:01;;;;;;;;;;;;;;;20.56;67.48;94573.94;5135706;27;1028;-66
2023/10/28 06:48:27;;;;;;;;;;;;;;;20.34;68.65;94590.00;5117152;27;1099;-67
2023/10/28 06:50:53;;;;;;;;;;;;;;;20.64;67.41;94589.88;5116828;27;1041;-66
2023/10/28 06:53:21;;;;;;;;;;;;;;;20.25;68.92;94593.06;5117078;27;1088;-64
2023/10/28 06:55:48;;;;;;;;;;;;;;;20.62;68.45;94594.75;5135224;27;1067;-64
2023/10/28 06:58:15;;;;;;;;;;;;;;;20.38;67.95;94600.16;5135117;27;1103;-65
2023/10/28 07:00:41;;;;;;;;;;;;;;;19.58;71.18;94598.69;5135244;27;2005;-65
2023/10/28 07:03:07;;;;;;;;;;;;;;;19.10;74.32;94594.94;5135250;27;1094;-65
2023/10/28 07:05:34;;;;;;;;;;;;;;;19.22;74.46;94595.00;5135221;27;1044;-65
2023/10/28 07:08:00;;;;;;;;;;;;;;;19.30;74.35;94591.97;5116644;27;1381;-65
2023/10/28 07:10:27;;;;;;;;;;;;;;;19.44;74.62;94599.91;5134938;27;1169;-64
2023/10/28 07:12:53;;;;;;;;;;;;;;;19.55;73.95;94601.84;5134995;27;1020;-64
2023/10/28 07:15:19;;;;;;;;;;;;;;;19.21;75.95;94593.31;5134919;27;1095;-65
2023/10/28 07:17:45;;;;;;;;;;;;;;;19.15;76.49;94596.13;5135161;27;1052;-65
2023/10/28 07:20:11;;;;;;;;;;;;;;;19.30;75.89;94604.69;5134903;27;985;-65
2023/10/28 07:22:38;;;;;;;;;;;;;;;19.10;77.28;94605.78;5134746;27;1913;-65
2023/10/28 07:25:04;;;;;;;;;;;;;;;19.00;80.65;94596.53;5134678;27;1028;-65
2023/10/28 07:27:31;;;;;;;;;;;;;;;19.04;79.08;94603.97;5134960;27;1027;-73
2023/10/28 07:29:59;;;;;;;;;;;;;;;19.34;78.43;94599.66;5134803;27;1043;-68
2023/10/28 07:32:25;;;;;;;;;;;;;;;19.66;76.51;94602.94;5134683;27;1098;-68
2023/10/28 07:34:51;;;;;;;;;;;;;;;19.48;77.44;94606.53;5134816;27;1057;-70
2023/10/28 07:37:17;;;;;;;;;;;;;;;19.22;78.47;94607.72;5134498;27;1084;-63
2023/10/28 07:39:44;;;;;;;;;;;;;;;18.95;79.30;94620.75;5134533;27;1091;-64
2023/10/28 07:42:10;;;;;;;;;;;;;;;18.56;82.33;94618.22;5134658;27;1983;-64
2023/10/28 07:44:37;;;;;;;;;;;;;;;18.20;82.92;94608.97;5134735;27;1006;-64
2023/10/28 07:47:03;;;;;;;;;;;;;;;17.99;84.37;94610.19;5134701;27;973;-63
2023/10/28 07:49:29;;;;;;;;;;;;;;;17.92;84.61;94612.94;5134424;27;1024;-63
2023/10/28 07:51:55;;;;;;;;;;;;;;;17.94;84.18;94616.25;5116300;28;975;-63
2023/10/28 07:54:21;;;;;;;;;;;;;;;18.02;84.17;94615.19;5134358;27;985;-63
2023/10/28 07:56:47;;;;;;;;;;;;;;;18.09;84.86;94610.50;5134346;28;1001;-63
2023/10/28 07:59:13;;;;;;;;;;;;;;;18.27;84.16;94612.47;5134278;28;1015;-63
2023/10/28 08:01:39;;;;;;;;;;;;;;;18.45;82.72;94625.19;5134486;27;1996;-63
2023/10/28 08:04:05;;;;;;;;;;;;;;;18.45;85.08;94625.19;5138334;27;981;-63
2023/10/28 08:06:31;;;;;;;;;;;;;;;18.51;84.93;94624.28;5138158;27;1094;-63
2023/10/28 08:08:57;;;;;;;;;;;;;;;18.60;84.00;94621.31;5120082;27;1179;-63
2023/10/28 08:11:28;;;;;;;;;;;;;;;18.65;85.25;94616.06;5138738;27;969;-62
2023/10/28 08:13:54;;;;;;;;;;;;;;;18.69;84.53;94628.09;5138737;27;981;-62
2023/10/28 08:16:21;;;;;;;;;;;;;;;18.73;84.41;94630.13;5138451;27;1012;-64
2023/10/28 08:18:47;;;;;;;;;;;;;;;18.75;85.76;94626.38;5138718;27;1433;-62
2023/10/28 08:21:14;;;;;;;;;;;;;;;18.64;86.80;94625.22;5137555;27;1906;-61
2023/10/28 08:23:40;;;;;;;;;;;;;;;18.61;86.28;94623.81;5138127;27;954;-62
2023/10/28 08:26:14;;;;;;;;;;;;;;;18.77;86.17;94627.78;5137854;27;1002;-62
2023/10/28 08:28:40;;;;;;;;;;;;;;;18.77;86.74;94629.69;5137531;27;957;-62
2023/10/28 08:31:10;;;;;;;;;;;;;;;18.75;86.40;94634.50;5137532;27;1312;-64
2023/10/28 08:33:36;;;;;;;;;;;;;;;18.49;88.83;94636.41;5137885;27;1370;-65
2023/10/28 08:36:03;;;;;;;;;;;;;;;18.49;88.15;94636.41;5137452;27;1008;-66
2023/10/28 08:38:29;;;;;;;;;;;;;;;18.50;88.08;94641.59;5137030;27;1044;-64
2023/10/28 08:40:58;;;;;;;;;;;;;;;18.65;88.07;94641.25;5119653;27;1913;-63
2023/10/28 08:43:25;;;;;;;;;;;;;;;18.82;86.15;94643.38;5137503;27;949;-63
2023/10/28 08:45:53;;;;;;;;;;;;;;;19.00;86.46;94650.69;5137816;27;1123;-63
2023/10/28 08:48:20;;;;;;;;;;;;;;;19.10;83.92;94648.28;5137010;27;1473;-63
2023/10/28 08:50:50;;;;;;;;;;;;;;;19.25;83.35;94656.03;5137307;27;989;-63
2023/10/28 08:53:17;;;;;;;;;;;;;;;19.36;82.98;94655.28;5137871;27;997;-60
2023/10/28 08:55:44;;;;;;;;;;;;;;;19.43;83.37;94652.50;5137896;27;1044;-68
2023/10/28 08:58:10;;;;;;;;;;;;;;;19.47;82.53;94645.53;5137654;27;947;-63
2023/10/28 09:00:38;;;;;;;;;;;;;;;19.58;81.36;94646.63;5137645;27;1909;-59
2023/10/28 09:03:05;;;;;;;;;;;;;;;19.68;76.45;94655.88;5137578;27;1368;-59
2023/10/28 09:05:31;;;;;;;;;;;;;;;19.74;77.76;94661.50;5137459;27;1003;-58
2023/10/28 09:07:57;;;;;;;;;;;;;;;19.85;78.29;94652.56;5129938;27;1217;-60
2023/10/28 09:10:24;;;;;;;;;;;;;;;19.94;79.54;94658.47;5116868;28;1040;-59
2023/10/28 09:12:51;;;;;;;;;;;;;;;19.97;78.27;94658.03;5116585;28;1048;-60
2023/10/28 09:15:17;;;;;;;;;;;;;;;20.01;79.00;94657.31;5116514;28;976;-60
2023/10/28 09:17:43;;;;;;;;;;;;;;;20.00;80.16;94657.56;5116668;28;1064;-60
2023/10/28 09:20:09;;;;;;;;;;;;;;;19.94;79.26;94648.47;5116629;28;1044;-63
2023/10/28 09:22:38;;;;;;;;;;;;;;;19.98;78.61;94651.56;5116472;28;1976;-65
2023/10/28 09:25:05;;;;;;;;;;;;;;;20.03;79.08;94643.53;5116492;28;1596;-63
2023/10/28 09:27:32;;;;;;;;;;;;;;;20.08;77.44;94644.47;5116512;28;1052;-64
2023/10/28 09:30:07;;;;;;;;;;;;;;;20.15;80.21;94643.56;5116513;28;978;-64
2023/10/28 09:32:34;;;;;;;;;;;;;;;20.66;76.44;94640.22;5100636;27;1161;-63
2023/10/28 09:35:06;;;;;;;;;;;;;;;21.15;74.26;94645.38;5136773;27;1033;-63
2023/10/28 09:37:34;;;;;;;;;;;;;;;21.25;72.57;94645.56;5136999;27;1048;-64
2023/10/28 09:40:01;;;;;;;;;;;;;;;21.59;70.55;94634.88;5137011;27;1036;-61
2023/10/28 09:42:29;;;;;;;;;;;;;;;22.15;69.67;94632.34;5136643;27;1983;-62
2023/10/28 09:44:55;;;;;;;;;;;;;;;22.35;69.79;94641.97;5136637;27;1020;-65
2023/10/28 09:47:22;;;;;;;;;;;;;;;22.59;68.85;94637.16;5136625;27;965;-64
2023/10/28 09:49:52;;;;;;;;;;;;;;;22.82;67.05;94630.69;5136832;27;1026;-63
2023/10/28 09:52:19;;;;;;;;;;;;;;;23.03;66.53;94631.84;5136749;27;980;-66
2023/10/28 09:54:49;;;;;;;;;;;;;;;23.06;66.82;94625.88;5136532;27;925;-68
2023/10/28 09:57:15;;;;;;;;;;;;;;;23.03;66.73;94630.97;5136404;27;966;-64
2023/10/28 09:59:44;;;;;;;;;;;;;;;22.99;66.34;94627.94;5136364;27;960;-63
2023/10/28 10:02:11;;;;;;;;;;;;;;;22.88;67.07;94618.81;5136156;27;2025;-63
2023/10/28 10:04:47;;;;;;;;;;;;;;;22.89;66.81;94619.63;5136489;27;941;-64
2023/10/28 10:07:13;;;;;;;;;;;;;;;22.79;65.50;94617.59;5118923;27;1095;-64
2023/10/28 10:09:39;;;;;;;;;;;;;;;22.79;66.02;94620.31;5157045;27;1027;-65
2023/10/28 10:12:06;;;;;;;;;;;;;;;22.79;65.76;94614.84;5156786;27;1225;-68
2023/10/28 10:14:32;;;;;;;;;;;;;;;22.64;67.22;94601.81;5138308;27;995;-62
2023/10/28 10:17:16;;;;;;;;;;;;;;;22.64;67.34;94604.56;5156950;27;1067;-61
2023/10/28 10:19:43;;;;;;;;;;;;;;;22.90;66.26;94605.75;5156859;27;1060;-62
2023/10/28 10:22:10;;;;;;;;;;;;;;;23.05;66.05;94612.50;5156651;27;1893;-58
2023/10/28 10:24:47;;;;;;;;;;;;;;;23.02;65.68;94600.19;5156354;27;1002;-59
2023/10/28 10:27:13;;;;;;;;;;;;;;;23.00;64.53;94602.34;5156352;27;968;-59
2023/10/28 10:29:42;;;;;;;;;;;;;;;22.94;64.71;94587.81;5156772;27;972;-59
2023/10/28 10:32:17;;;;;;;;;;;;;;;22.87;65.25;94587.16;5156649;27;1028;-59
2023/10/28 10:34:45;;;;;;;;;;;;;;;22.88;66.76;94590.69;5135829;27;1075;-59
2023/10/28 10:37:24;;;;;;;;;;;;;;;22.94;66.26;94589.72;5135689;27;1031;-59
2023/10/28 10:39:50;;;;;;;;;;;;;;;23.08;65.79;94593.75;5135597;27;1006;-61
2023/10/28 10:42:16;;;;;;;;;;;;;;;23.10;63.86;94596.22;5135639;27;1976;-61
2023/10/28 10:44:42;;;;;;;;;;;;;;;23.07;63.59;94605.72;5135501;27;1064;-60
2023/10/28 10:47:09;;;;;;;;;;;;;;;23.16;63.27;94604.22;5135641;27;969;-61
2023/10/28 10:49:36;;;;;;;;;;;;;;;23.14;62.89;94598.16;5135370;27;807;-58
2023/10/28 10:52:02;;;;;;;;;;;;;;;23.17;63.42;94603.13;5135355;27;987;-61
2023/10/28 10:54:30;;;;;;;;;;;;;;;23.24;64.18;94602.09;5135536;27;1003;-65
2023/10/28 10:56:56;;;;;;;;;;;;;;;23.19;64.34;94592.78;5135498;27;1047;-63
2023/10/28 10:59:22;;;;;;;;;;;;;;;23.21;61.99;94600.72;5117108;27;992;-64
2023/10/28 11:01:48;;;;;;;;;;;;;;;23.31;63.80;94600.03;5135108;27;1913;-64
2023/10/28 11:04:14;;;;;;;;;;;;;;;23.33;62.92;94597.88;5116925;27;996;-63
2023/10/28 11:06:40;;;;;;;;;;;;;;;23.45;62.03;94586.81;5135240;27;973;-64
2023/10/28 11:09:07;;;;;;;;;;;;;;;23.40;58.79;94582.13;5134829;27;1249;-60
2023/10/28 11:11:35;;;;;;;;;;;;;;;23.54;55.89;94588.00;5134886;27;1023;-65
2023/10/28 11:14:03;;;;;;;;;;;;;;;23.69;56.50;94579.16;5135161;27;1027;-64
2023/10/28 11:16:30;;;;;;;;;;;;;;;23.70;52.86;94594.47;5134468;27;1091;-64
2023/10/28 11:18:57;;;;;;;;;;;;;;;23.63;51.93;94600.13;5116772;27;980;-64
2023/10/28 11:21:23;;;;;;;;;;;;;;;23.56;55.21;94592.16;5134616;27;1902;-63
2023/10/28 11:23:50;;;;;;;;;;;;;;;23.42;54.44;94584.59;5134779;27;1033;-63
2023/10/28 11:26:17;;;;;;;;;;;;;;;23.27;56.62;94588.78;5134740;27;1083;-63
2023/10/28 11:28:43;;;;;;;;;;;;;;;23.35;57.09;94582.91;5134861;27;953;-64
2023/10/28 11:31:11;;;;;;;;;;;;;;;23.47;55.87;94599.13;5116578;27;1170;-63
2023/10/28 11:33:37;;;;;;;;;;;;;;;23.66;54.02;94604.25;5127588;27;1178;-64
2023/10/28 11:36:04;;;;;;;;;;;;;;;23.82;54.30;94597.06;5155118;27;1039;-63
2023/10/28 11:38:31;;;;;;;;;;;;;;;23.88;56.21;94593.31;5136859;27;1091;-62
2023/10/28 11:41:06;;;;;;;;;;;;;;;23.78;55.03;94594.84;5155376;27;1909;-59
2023/10/28 11:43:35;;;;;;;;;;;;;;;23.69;54.74;94598.28;5155229;27;1091;-59
2023/10/28 11:46:02;;;;;;;;;;;;;;;23.64;53.96;94604.50;5155217;27;1015;-59
2023/10/28 11:48:28;;;;;;;;;;;;;;;23.63;53.48;94596.56;5155158;27;979;-59
2023/10/28 11:50:54;;;;;;;;;;;;;;;23.53;50.33;94600.03;5153919;27;1439;-59
2023/10/28 11:53:24;;;;;;;;;;;;;;;23.55;49.46;94589.66;5155261;27;987;-60
2023/10/28 11:55:51;;;;;;;;;;;;;;;23.56;52.05;94600.34;5155132;27;1004;-60
2023/10/28 11:58:17;;;;;;;;;;;;;;;23.52;52.16;94593.75;5155077;27;956;-60
2023/10/28 12:00:44;;;;;;;;;;;;;;;23.55;50.97;94603.31;5155038;27;1909;-59
2023/10/28 12:03:11;;;;;;;;;;;;;;;23.62;49.03;94614.84;5154907;27;953;-59
2023/10/28 12:05:38;;;;;;;;;;;;;;;23.68;49.60;94600.19;5154621;27;1103;-60
2023/10/28 12:08:04;;;;;;;;;;;;;;;23.69;49.25;94599.09;5154601;27;1248;-60
2023/10/28 12:10:33;;;;;;;;;;;;;;;23.66;50.00;94596.88;5154471;27;969;-60
2023/10/28 12:12:58;;;;;;;;;;;;;;;23.62;48.57;94606.69;5154497;27;1050;-59
2023/10/28 12:15:25;;;;;;;;;;;;;;;23.55;49.10;94617.78;5154850;27;1192;-60
2023/10/28 12:17:53;;;;;;;;;;;;;;;23.56;48.36;94619.44;5154735;27;1088;-60
2023/10/28 12:20:19;;;;;;;;;;;;;;;23.63;48.51;94612.94;5154952;27;1195;-60
2023/10/28 12:22:45;;;;;;;;;;;;;;;23.61;48.18;94615.94;5154787;27;1988;-61
2023/10/28 12:25:13;;;;;;;;;;;;;;;23.66;49.00;94621.44;5154092;27;1066;-59
2023/10/28 12:27:39;;;;;;;;;;;;;;;23.62;48.81;94625.78;5154936;27;1095;-59
2023/10/28 12:30:08;;;;;;;;;;;;;;;23.60;46.51;94625.22;5154915;27;1206;-59
2023/10/28 12:32:34;;;;;;;;;;;;;;;23.68;46.80;94632.13;5152080;27;1305;-59
2023/10/28 12:35:00;;;;;;;;;;;;;;;23.66;46.79;94628.81;5133965;28;1107;-58
2023/10/28 12:37:29;;;;;;;;;;;;;;;23.64;46.34;94630.94;5133859;28;1036;-58
2023/10/28 12:39:55;;;;;;;;;;;;;;;23.61;46.20;94642.41;5133966;28;1039;-58
2023/10/28 12:42:21;;;;;;;;;;;;;;;23.56;46.69;94622.16;5133753;28;1905;-58
2023/10/28 12:44:47;;;;;;;;;;;;;;;23.57;47.79;94621.06;5133909;28;1006;-58
2023/10/28 12:47:13;;;;;;;;;;;;;;;23.57;46.64;94631.16;5133752;28;1215;-58
2023/10/28 12:49:39;;;;;;;;;;;;;;;23.56;46.24;94627.63;5136883;27;991;-58
2023/10/28 12:52:05;;;;;;;;;;;;;;;23.59;46.72;94631.72;5137995;27;925;-59
2023/10/28 12:54:34;;;;;;;;;;;;;;;23.56;46.94;94629.50;5137667;27;952;-58